Time;durP1;ratioP1;P1;durP2;ratioP2;P2;SDS_P1;SDS_P2;PMS_P1;PMS_P2;Temp;Humidity;BMP_temperature;BMP_pressure;BME280_temperature;BME280_humidity;BME280_pressure;Samples;Min_cycle;Max_cycle;Signal;HPM_P1;HPM_P2
2021/06/18 00:00:41;;;;;;;57.92;51.72;;;19.50;99.90;;;;;;3606981;39;20146;-84
2021/06/18 00:03:06;;;;;;;58.05;51.83;;;19.50;99.90;;;;;;3588359;39;20046;-84
2021/06/18 00:05:32;;;;;;;62.75;52.65;;;19.60;99.90;;;;;;3606178;39;20408;-84
2021/06/18 00:07:58;;;;;;;54.50;48.80;;;19.40;99.90;;;;;;3596619;39;20586;-84
2021/06/18 00:10:25;;;;;;;57.13;50.92;;;19.40;99.90;;;;;;3606004;39;20104;-82
2021/06/18 00:12:51;;;;;;;57.20;51.08;;;19.30;99.90;;;;;;3606894;39;20062;-85
2021/06/18 00:15:17;;;;;;;60.13;53.75;;;19.20;99.90;;;;;;3606808;39;20114;-85
2021/06/18 00:17:43;;;;;;;59.58;53.15;;;19.30;99.90;;;;;;3598155;39;20044;-84
2021/06/18 00:20:11;;;;;;;60.38;54.20;;;19.30;99.90;;;;;;3598082;39;20299;-84
2021/06/18 00:22:38;;;;;;;55.85;49.10;;;19.20;99.90;;;;;;3607392;39;20059;-84
2021/06/18 00:25:05;;;;;;;50.95;42.97;;;19.30;99.90;;;;;;3607314;39;20043;-85
2021/06/18 00:27:31;;;;;;;46.92;40.97;;;19.30;99.90;;;;;;3606285;39;20063;-83
2021/06/18 00:29:57;;;;;;;62.75;54.95;;;19.80;99.90;;;;;;3607720;39;20062;-84
2021/06/18 00:32:23;;;;;;;56.13;49.90;;;19.50;99.90;;;;;;3607041;39;20059;-85
2021/06/18 00:34:49;;;;;;;48.15;43.22;;;19.30;99.90;;;;;;3607062;39;20402;-85
2021/06/18 00:37:14;;;;;;;46.83;42.03;;;19.50;99.90;;;;;;3607637;39;20334;-85
2021/06/18 00:39:40;;;;;;;65.57;58.50;;;19.80;99.90;;;;;;3607174;39;20109;-88
2021/06/18 00:42:07;;;;;;;63.58;57.03;;;19.50;99.90;;;;;;3606888;39;20494;-85
2021/06/18 00:44:33;;;;;;;69.25;61.78;;;19.50;99.90;;;;;;3607094;39;20051;-84
2021/06/18 00:46:59;;;;;;;55.88;50.08;;;19.50;99.90;;;;;;3607301;39;20349;-84
2021/06/18 00:49:25;;;;;;;58.40;52.22;;;19.70;99.90;;;;;;3606830;39;20063;-85
2021/06/18 00:51:51;;;;;;;63.58;56.80;;;19.70;99.90;;;;;;3607142;39;20059;-84
2021/06/18 00:54:28;;;;;;;69.63;62.47;;;19.50;99.90;;;;;;3597347;39;20058;-84
2021/06/18 00:57:01;;;;;;;66.05;57.33;;;19.40;99.90;;;;;;3606117;39;20067;-84
2021/06/18 00:59:27;;;;;;;54.20;48.65;;;19.40;99.90;;;;;;3606346;39;20054;-86
2021/06/18 01:01:54;;;;;;;62.55;55.97;;;19.60;99.90;;;;;;3597972;39;20465;-84
2021/06/18 01:04:22;;;;;;;59.63;53.17;;;19.60;99.90;;;;;;3606978;39;20047;-84
2021/06/18 01:06:55;;;;;;;66.53;59.30;;;19.50;99.90;;;;;;3606896;39;20054;-84
2021/06/18 01:09:22;;;;;;;68.15;60.95;;;19.30;99.90;;;;;;3605917;39;20399;-84
2021/06/18 01:11:59;;;;;;;73.20;65.38;;;19.40;99.90;;;;;;3606214;39;20043;-85
2021/06/18 01:14:36;;;;;;;72.20;64.53;;;19.30;99.90;;;;;;3596124;39;20422;-85
2021/06/18 01:17:14;;;;;;;79.07;70.65;;;19.20;99.90;;;;;;3605597;39;20051;-84
2021/06/18 01:19:54;;;;;;;80.47;72.00;;;19.00;99.90;;;;;;3605728;39;20055;-84
2021/06/18 01:22:23;;;;;;;76.40;68.70;;;18.90;99.90;;;;;;3605648;39;20321;-85
2021/06/18 01:25:00;;;;;;;79.97;71.47;;;18.90;99.90;;;;;;3605885;39;20058;-83
2021/06/18 01:27:32;;;;;;;73.30;65.55;;;18.80;99.90;;;;;;3604982;39;20048;-84
2021/06/18 01:30:10;;;;;;;81.10;72.28;;;18.90;99.90;;;;;;3606043;39;20095;-85
2021/06/18 01:33:10;;;;;;;65.18;56.35;;;18.80;99.90;;;;;;3606769;39;20047;-84
2021/06/18 01:35:42;;;;;;;68.55;61.17;;;18.80;99.90;;;;;;3607328;39;20051;-84
2021/06/18 01:38:10;;;;;;;79.10;70.45;;;18.80;99.90;;;;;;3596927;39;20051;-84
2021/06/18 01:40:39;;;;;;;80.72;72.25;;;18.70;99.90;;;;;;3606699;39;20127;-83
2021/06/18 01:43:08;;;;;;;74.45;66.35;;;18.70;99.90;;;;;;3605958;39;20091;-84
2021/06/18 01:45:36;;;;;;;76.20;68.32;;;18.70;99.90;;;;;;3605952;39;20088;-84
2021/06/18 01:48:05;;;;;;;79.78;71.13;;;18.80;99.90;;;;;;3606441;39;20047;-83
2021/06/18 01:50:32;;;;;;;74.38;66.78;;;18.70;99.90;;;;;;3606621;39;20055;-86
2021/06/18 01:53:09;;;;;;;65.90;58.97;;;18.70;99.90;;;;;;3596565;39;20047;-85
2021/06/18 01:55:36;;;;;;;73.10;65.18;;;18.90;99.90;;;;;;3606080;39;20051;-85
2021/06/18 01:58:04;;;;;;;63.08;56.25;;;19.10;99.90;;;;;;3605378;39;20370;-85
2021/06/18 02:00:32;;;;;;;72.43;64.47;;;19.20;99.90;;;;;;3606424;39;20207;-85
2021/06/18 02:03:01;;;;;;;58.17;52.28;;;19.20;99.90;;;;;;3605753;39;20047;-84
2021/06/18 02:05:28;;;;;;;55.17;49.55;;;19.30;99.90;;;;;;3596390;39;20498;-84
2021/06/18 02:07:56;;;;;;;64.68;57.85;;;19.40;99.90;;;;;;3606071;39;20047;-83
2021/06/18 02:10:23;;;;;;;71.32;63.70;;;19.20;99.90;;;;;;3606060;39;20449;-85
2021/06/18 02:12:50;;;;;;;72.88;64.80;;;19.10;99.90;;;;;;3604949;39;20051;-84
2021/06/18 02:15:17;;;;;;;69.95;62.30;;;18.80;99.90;;;;;;3605766;39;20051;-84
2021/06/18 02:17:44;;;;;;;69.95;62.53;;;18.80;99.90;;;;;;3606451;39;20306;-85
2021/06/18 02:20:12;;;;;;;71.35;63.17;;;18.80;99.90;;;;;;3606581;39;20055;-86
2021/06/18 02:22:40;;;;;;;69.57;62.10;;;18.70;99.90;;;;;;3606376;39;20048;-82
2021/06/18 02:25:08;;;;;;;67.43;58.72;;;18.60;99.90;;;;;;3606076;39;20127;-83
2021/06/18 02:27:36;;;;;;;68.90;61.75;;;18.60;99.90;;;;;;3605855;39;20159;-84
2021/06/18 02:30:04;;;;;;;72.22;63.40;;;18.60;99.90;;;;;;3605918;39;20069;-85
2021/06/18 02:32:32;;;;;;;77.45;65.57;;;18.60;99.90;;;;;;3606091;39;20056;-86
2021/06/18 02:34:58;;;;;;;66.30;59.58;;;18.50;99.90;;;;;;3601555;39;20058;-85
2021/06/18 02:37:24;;;;;;;78.18;69.80;;;18.70;99.90;;;;;;3594843;39;20314;-83
2021/06/18 02:39:49;;;;;;;71.93;64.10;;;18.70;99.90;;;;;;3600898;39;20051;-84
2021/06/18 02:42:15;;;;;;;75.35;65.00;;;18.50;99.90;;;;;;3604740;39;20054;-85
2021/06/18 02:44:41;;;;;;;57.67;51.03;;;18.60;99.90;;;;;;3604423;39;20075;-84
2021/06/18 02:47:14;;;;;;;77.18;68.13;;;18.70;99.90;;;;;;3605398;39;20051;-86
2021/06/18 02:49:57;;;;;;;68.63;61.25;;;18.60;99.90;;;;;;3603841;39;20056;-83
2021/06/18 02:52:49;;;;;;;74.63;66.63;;;18.60;99.90;;;;;;3605342;39;20063;-85
2021/06/18 02:55:20;;;;;;;77.88;67.43;;;18.50;99.90;;;;;;3594731;40;20048;-85
2021/06/18 02:57:55;;;;;;;75.28;66.28;;;18.50;99.90;;;;;;3603973;39;20059;-84
2021/06/18 03:00:22;;;;;;;72.28;61.42;;;18.50;99.90;;;;;;3605439;39;20075;-85
2021/06/18 03:02:59;;;;;;;52.22;45.05;;;18.60;99.90;;;;;;3605477;39;20047;-85
2021/06/18 03:05:26;;;;;;;60.38;47.22;;;18.90;99.90;;;;;;3606048;39;20230;-83
2021/06/18 03:07:55;;;;;;;63.50;55.35;;;19.00;99.90;;;;;;3605173;39;20047;-84
2021/06/18 03:10:25;;;;;;;55.78;47.03;;;18.80;99.90;;;;;;3596235;39;20062;-83
2021/06/18 03:12:58;;;;;;;61.60;54.00;;;18.90;99.90;;;;;;3605035;39;20459;-84
2021/06/18 03:15:24;;;;;;;;;;;18.80;99.90;;;;;;3596066;39;20392;-84
2021/06/18 03:17:50;;;;;;;51.50;44.88;;;18.90;99.90;;;;;;3596386;39;19992;-85
2021/06/18 03:20:21;;;;;;;52.25;44.70;;;19.10;99.90;;;;;;3604799;39;20051;-84
2021/06/18 03:22:56;;;;;;;62.95;51.58;;;19.10;99.90;;;;;;3604980;39;20051;-85
2021/06/18 03:25:24;;;;;;;60.30;46.50;;;19.00;99.90;;;;;;3604591;39;20402;-84
2021/06/18 03:27:52;;;;;;;81.18;57.95;;;19.10;99.90;;;;;;3604541;39;20052;-84
2021/06/18 03:30:20;;;;;;;78.63;54.55;;;18.90;99.90;;;;;;3604784;39;20051;-85
2021/06/18 03:32:49;;;;;;;71.30;53.55;;;18.70;99.90;;;;;;3605043;39;20058;-84
2021/06/18 03:35:15;;;;;;;59.53;45.83;;;18.60;99.90;;;;;;3604157;39;20051;-83
2021/06/18 03:37:41;;;;;;;71.72;50.90;;;18.60;99.90;;;;;;3604868;39;20062;-84
2021/06/18 03:40:08;;;;;;;61.25;44.17;;;18.70;99.90;;;;;;3595660;39;20436;-85
2021/06/18 03:42:35;;;;;;;70.13;48.10;;;18.80;99.90;;;;;;3604185;39;20150;-84
2021/06/18 03:45:04;;;;;;;84.57;53.08;;;18.80;99.90;;;;;;3606365;39;20430;-85
2021/06/18 03:47:32;;;;;;;91.07;56.33;;;18.50;99.90;;;;;;3606583;39;20532;-83
2021/06/18 03:49:58;;;;;;;73.32;50.58;;;18.30;99.90;;;;;;3606418;39;20054;-85
2021/06/18 03:52:24;;;;;;;74.90;48.83;;;18.20;99.90;;;;;;3605877;39;20076;-86
2021/06/18 03:54:50;;;;;;;87.30;50.33;;;18.30;99.90;;;;;;3606434;39;20398;-83
2021/06/18 03:57:18;;;;;;;89.10;50.13;;;18.20;99.90;;;;;;3605759;39;20051;-83
2021/06/18 03:59:45;;;;;;;74.63;46.83;;;18.20;99.90;;;;;;3606477;39;20047;-84
2021/06/18 04:02:14;;;;;;;75.18;48.25;;;18.20;99.90;;;;;;3596839;39;20048;-83
2021/06/18 04:04:41;;;;;;;88.20;48.33;;;18.20;99.90;;;;;;3606125;39;20047;-85
2021/06/18 04:07:09;;;;;;;81.43;45.08;;;18.00;99.90;;;;;;3606701;39;20043;-85
2021/06/18 04:09:37;;;;;;;69.55;44.00;;;18.10;99.90;;;;;;3605914;39;20063;-84
2021/06/18 04:12:05;;;;;;;56.33;37.92;;;18.30;99.90;;;;;;3605419;39;20047;-83
2021/06/18 04:14:31;;;;;;;70.20;43.28;;;18.40;99.90;;;;;;3595195;39;20429;-85
2021/06/18 04:16:57;;;;;;;67.97;44.75;;;18.40;99.90;;;;;;3606479;39;20060;-84
2021/06/18 04:19:25;;;;;;;69.88;43.40;;;18.20;99.90;;;;;;3605464;39;20055;-83
2021/06/18 04:21:52;;;;;;;82.90;49.08;;;18.20;99.90;;;;;;3606051;39;20051;-84
2021/06/18 04:24:17;;;;;;;70.30;46.05;;;18.20;99.90;;;;;;3596241;39;20056;-85
2021/06/18 04:26:44;;;;;;;71.18;45.90;;;18.20;99.90;;;;;;3605720;39;20028;-84
2021/06/18 04:29:11;;;;;;;61.80;43.10;;;18.50;99.90;;;;;;3606229;39;20390;-84
2021/06/18 04:31:37;;;;;;;64.70;44.95;;;18.60;99.90;;;;;;3606059;39;20063;-84
2021/06/18 04:34:07;;;;;;;74.60;46.95;;;18.50;99.90;;;;;;3605809;39;20146;-84
2021/06/18 04:36:33;;;;;;;64.15;42.40;;;18.30;99.90;;;;;;3605669;39;20065;-84
2021/06/18 04:38:59;;;;;;;54.03;38.63;;;18.40;99.90;;;;;;3606699;39;20310;-84
2021/06/18 04:41:26;;;;;;;64.97;45.25;;;18.70;99.90;;;;;;3596109;39;20107;-84
2021/06/18 04:43:52;;;;;;;77.95;49.35;;;18.50;99.90;;;;;;3605700;39;20482;-84
2021/06/18 04:46:17;;;;;;;72.03;45.20;;;18.40;99.90;;;;;;3605949;39;20060;-85
2021/06/18 04:48:43;;;;;;;65.65;45.05;;;18.30;99.90;;;;;;3606198;39;20067;-85
2021/06/18 04:51:09;;;;;;;69.55;47.25;;;18.50;99.90;;;;;;3605986;39;20051;-85
2021/06/18 04:53:35;;;;;;;60.10;41.70;;;18.60;99.90;;;;;;3605803;39;20055;-85
2021/06/18 04:56:04;;;;;;;54.20;39.22;;;18.60;99.90;;;;;;3605985;39;20050;-84
2021/06/18 04:58:31;;;;;;;50.55;36.72;;;18.90;99.90;;;;;;3605669;39;20065;-85
2021/06/18 05:00:57;;;;;;;54.80;39.17;;;19.10;99.90;;;;;;3606578;39;20063;-84
2021/06/18 05:03:23;;;;;;;58.50;42.85;;;19.00;99.90;;;;;;3605872;39;20059;-84
2021/06/18 05:05:48;;;;;;;49.67;37.58;;;19.00;99.90;;;;;;3596251;39;20048;-84
2021/06/18 05:08:14;;;;;;;48.67;36.15;;;18.70;99.90;;;;;;3606647;39;20055;-84
2021/06/18 05:10:40;;;;;;;48.92;35.35;;;18.90;99.90;;;;;;3606206;39;20044;-85
2021/06/18 05:13:06;;;;;;;46.03;35.15;;;19.00;99.90;;;;;;3605999;39;20132;-85
2021/06/18 05:15:31;;;;;;;49.78;36.03;;;18.90;99.90;;;;;;3605853;39;20430;-88
2021/06/18 05:17:57;;;;;;;44.80;35.05;;;18.80;99.90;;;;;;3605408;39;20055;-85
2021/06/18 05:20:23;;;;;;;49.03;37.47;;;18.70;99.90;;;;;;3596451;39;20044;-84
2021/06/18 05:22:49;;;;;;;52.88;36.42;;;18.80;99.90;;;;;;3600674;39;20063;-84
2021/06/18 05:25:15;;;;;;;45.88;33.00;;;18.80;99.90;;;;;;3603579;39;20054;-89
2021/06/18 05:27:41;;;;;;;38.08;28.40;;;18.80;99.90;;;;;;3585275;39;20056;-88
2021/06/18 05:30:09;;;;;;;32.97;26.58;;;19.30;99.90;;;;;;3595555;39;20404;-88
2021/06/18 05:32:35;;;;;;;24.63;20.75;;;19.40;99.90;;;;;;3604560;39;20159;-88
2021/06/18 05:35:00;;;;;;;33.80;24.80;;;19.20;99.90;;;;;;3604257;39;20414;-87
2021/06/18 05:37:26;;;;;;;36.78;26.88;;;18.90;99.90;;;;;;3591566;39;20047;-88
2021/06/18 05:39:52;;;;;;;32.25;24.15;;;18.90;99.90;;;;;;3600103;39;20100;-87
2021/06/18 05:42:18;;;;;;;27.45;22.83;;;18.80;99.90;;;;;;3604542;39;20056;-87
2021/06/18 05:44:43;;;;;;;28.50;22.70;;;19.20;99.90;;;;;;3606999;39;20051;-87
2021/06/18 05:47:09;;;;;;;24.77;20.17;;;19.30;99.90;;;;;;3605096;39;20058;-86
2021/06/18 05:49:35;;;;;;;28.75;23.17;;;19.20;99.90;;;;;;3603732;39;20047;-87
2021/06/18 05:52:01;;;;;;;29.80;23.40;;;18.90;99.90;;;;;;3590351;40;20052;-82
2021/06/18 05:54:26;;;;;;;29.92;24.70;;;18.80;99.90;;;;;;3601842;39;20059;-82
2021/06/18 05:56:53;;;;;;;23.73;19.35;;;18.80;99.90;;;;;;3603785;39;20051;-85
2021/06/18 05:59:20;;;;;;;24.63;21.25;;;18.90;99.90;;;;;;3596518;39;20152;-82
2021/06/18 06:01:45;;;;;;;24.02;20.60;;;19.00;99.90;;;;;;3599576;39;20048;-82
2021/06/18 06:04:11;;;;;;;20.08;17.98;;;19.10;99.90;;;;;;3593878;40;20052;-82
2021/06/18 06:06:37;;;;;;;20.63;18.27;;;19.40;99.90;;;;;;3597426;39;20102;-83
2021/06/18 06:09:03;;;;;;;21.38;19.08;;;19.40;99.90;;;;;;3603933;39;20054;-82
2021/06/18 06:11:30;;;;;;;23.13;19.42;;;19.40;99.90;;;;;;3601527;39;20043;-82
2021/06/18 06:14:04;;;;;;;21.15;18.23;;;19.20;99.90;;;;;;3588736;39;20052;-82
2021/06/18 06:16:31;;;;;;;17.83;15.90;;;19.00;99.90;;;;;;3604187;39;20050;-82
2021/06/18 06:18:57;;;;;;;18.70;16.77;;;18.90;99.90;;;;;;3600704;39;20044;-83
2021/06/18 06:21:23;;;;;;;21.80;18.33;;;18.90;99.90;;;;;;3599246;39;20206;-83
2021/06/18 06:23:50;;;;;;;22.25;19.02;;;18.80;99.90;;;;;;3602972;39;20040;-82
2021/06/18 06:26:16;;;;;;;21.23;19.05;;;18.70;99.90;;;;;;3600855;39;20052;-83
2021/06/18 06:28:42;;;;;;;19.42;17.35;;;18.60;99.90;;;;;;3604913;39;20137;-84
2021/06/18 06:31:08;;;;;;;25.15;21.63;;;18.50;99.90;;;;;;3603752;39;20051;-82
2021/06/18 06:33:33;;;;;;;28.02;24.58;;;18.50;99.90;;;;;;3604061;39;20077;-80
2021/06/18 06:35:59;;;;;;;27.85;24.50;;;18.60;99.90;;;;;;3595593;39;20065;-79
2021/06/18 06:38:25;;;;;;;32.33;28.85;;;18.70;99.90;;;;;;3603332;39;20051;-80
2021/06/18 06:40:51;;;;;;;38.55;32.05;;;18.80;99.90;;;;;;3601851;39;20156;-80
2021/06/18 06:43:17;;;;;;;39.60;33.72;;;18.60;99.90;;;;;;3604216;39;20189;-81
2021/06/18 06:45:43;;;;;;;39.25;32.80;;;18.60;99.90;;;;;;3599008;39;20399;-80
2021/06/18 06:48:09;;;;;;;42.80;33.67;;;18.70;99.90;;;;;;3602777;39;20567;-80
2021/06/18 06:50:35;;;;;;;35.92;28.75;;;18.60;99.90;;;;;;3603582;39;20047;-80
2021/06/18 06:53:01;;;;;;;35.00;28.98;;;18.70;99.90;;;;;;3599947;39;20115;-81
2021/06/18 06:55:26;;;;;;;28.83;25.70;;;18.60;99.90;;;;;;3595180;40;20563;-80
2021/06/18 06:57:52;;;;;;;23.85;21.38;;;18.60;99.90;;;;;;3596823;39;20056;-82
2021/06/18 07:00:19;;;;;;;26.00;23.40;;;19.00;99.90;;;;;;3593924;39;20051;-82
2021/06/18 07:02:45;;;;;;;22.33;20.10;;;19.10;99.90;;;;;;3593281;39;20421;-82
2021/06/18 07:05:12;;;;;;;25.52;23.02;;;18.90;99.90;;;;;;3599013;39;20383;-83
2021/06/18 07:07:37;;;;;;;25.67;22.15;;;18.90;99.90;;;;;;3596650;39;20396;-79
2021/06/18 07:10:06;;;;;;;28.17;25.42;;;18.90;99.90;;;;;;3602512;39;20044;-80
2021/06/18 07:12:31;;;;;;;33.40;28.63;;;18.80;99.90;;;;;;3594489;39;20048;-80
2021/06/18 07:14:57;;;;;;;29.90;26.98;;;18.90;99.90;;;;;;3602361;39;20129;-80
2021/06/18 07:17:23;;;;;;;35.90;32.20;;;18.90;99.90;;;;;;3604883;39;20051;-80
2021/06/18 07:19:50;;;;;;;30.95;27.83;;;18.80;99.90;;;;;;3598609;39;20051;-83
2021/06/18 07:22:19;;;;;;;30.45;27.55;;;19.10;99.90;;;;;;3605604;39;20047;-80
2021/06/18 07:24:45;;;;;;;27.85;25.15;;;19.00;99.90;;;;;;3596492;40;20048;-81
2021/06/18 07:27:10;;;;;;;28.10;25.35;;;19.30;99.90;;;;;;3595630;39;20144;-84
2021/06/18 07:29:36;;;;;;;23.23;20.95;;;19.70;99.90;;;;;;3601939;39;20414;-83
2021/06/18 07:32:03;;;;;;;19.10;17.42;;;19.90;99.90;;;;;;3600267;39;20052;-81
2021/06/18 07:34:28;;;;;;;18.92;17.27;;;19.90;99.90;;;;;;3597935;39;20817;-85
2021/06/18 07:36:54;;;;;;;20.83;19.02;;;19.80;99.90;;;;;;3596597;39;20338;-80
2021/06/18 07:39:20;;;;;;;18.83;17.38;;;19.60;99.90;;;;;;3603700;39;20391;-82
2021/06/18 07:41:46;;;;;;;21.95;20.25;;;19.80;99.90;;;;;;3601550;39;20040;-83
2021/06/18 07:44:12;;;;;;;18.60;17.08;;;19.80;99.90;;;;;;3599090;39;20048;-82
2021/06/18 07:46:38;;;;;;;16.13;14.75;;;20.00;99.90;;;;;;3604033;39;20393;-84
2021/06/18 07:49:04;;;;;;;20.40;18.90;;;20.20;99.90;;;;;;3602251;39;20052;-81
2021/06/18 07:51:29;;;;;;;18.80;17.30;;;20.40;99.90;;;;;;3596437;39;20155;-83
2021/06/18 07:53:55;;;;;;;16.80;15.50;;;20.10;99.90;;;;;;3595974;40;20051;-83
2021/06/18 07:56:25;;;;;;;20.35;18.17;;;20.40;99.90;;;;;;3595881;39;20052;-84
2021/06/18 07:58:52;;;;;;;15.07;13.75;;;20.60;99.90;;;;;;3599582;39;20044;-81
2021/06/18 08:01:19;;;;;;;14.35;13.25;;;21.30;99.90;;;;;;3597794;39;20047;-82
2021/06/18 08:03:44;;;;;;;17.88;16.30;;;21.20;99.90;;;;;;3599898;39;20055;-84
2021/06/18 08:06:10;;;;;;;15.55;14.15;;;21.10;99.90;;;;;;3603892;39;20076;-82
2021/06/18 08:08:36;;;;;;;14.75;13.50;;;21.20;99.90;;;;;;3605651;39;20050;-82
2021/06/18 08:11:02;;;;;;;14.02;12.75;;;21.10;99.90;;;;;;3603273;39;20047;-82
2021/06/18 08:13:27;;;;;;;12.95;11.93;;;21.10;99.90;;;;;;3599249;39;20054;-82
2021/06/18 08:15:53;;;;;;;16.00;14.38;;;21.60;99.90;;;;;;3602203;39;20044;-83
2021/06/18 08:18:19;;;;;;;13.05;12.00;;;21.80;99.90;;;;;;3596137;39;20491;-85
2021/06/18 08:20:46;;;;;;;15.00;12.20;;;21.80;99.90;;;;;;3600054;39;20075;-83
2021/06/18 08:23:12;;;;;;;17.20;15.80;;;21.80;99.90;;;;;;3600911;39;20144;-82
2021/06/18 08:25:38;;;;;;;16.45;14.75;;;21.10;99.90;;;;;;3597753;39;20366;-82
2021/06/18 08:28:04;;;;;;;16.98;15.32;;;21.40;99.90;;;;;;3605644;39;20136;-84
2021/06/18 08:30:30;;;;;;;16.38;14.98;;;21.30;99.90;;;;;;3599453;39;20132;-85
2021/06/18 08:32:55;;;;;;;14.38;13.18;;;21.50;99.90;;;;;;3596612;39;20059;-84
2021/06/18 08:35:21;;;;;;;15.35;14.07;;;21.90;99.90;;;;;;3588708;39;20412;-88
2021/06/18 08:37:48;;;;;;;15.40;13.80;;;21.90;99.90;;;;;;3594885;39;20610;-86
2021/06/18 08:40:14;;;;;;;13.63;12.35;;;21.90;99.90;;;;;;3600107;39;20491;-85
2021/06/18 08:42:40;;;;;;;14.05;12.77;;;22.00;99.90;;;;;;3601572;39;20056;-87
2021/06/18 08:45:07;;;;;;;13.68;12.43;;;22.30;99.90;;;;;;3606003;39;20063;-88
2021/06/18 08:47:33;;;;;;;18.20;13.05;;;22.60;99.90;;;;;;3606230;39;20052;-87
2021/06/18 08:49:59;;;;;;;13.73;12.43;;;22.30;99.90;;;;;;3605504;39;20048;-86
2021/06/18 08:52:25;;;;;;;14.10;12.65;;;22.30;99.90;;;;;;3605437;39;20441;-86
2021/06/18 08:54:51;;;;;;;11.73;10.73;;;22.00;99.90;;;;;;3605446;39;20056;-87
2021/06/18 08:57:19;;;;;;;13.55;12.13;;;22.40;99.90;;;;;;3602942;39;20062;-87
2021/06/18 08:59:47;;;;;;;12.52;11.00;;;22.50;99.90;;;;;;3605666;39;20096;-87
2021/06/18 09:02:14;;;;;;;13.15;11.85;;;22.10;99.90;;;;;;3605925;39;20083;-87
2021/06/18 09:05:00;;;;;;;13.18;9.95;;;21.90;99.90;;;;;;3606183;39;20056;-85
2021/06/18 09:07:25;;;;;;;12.50;11.50;;;22.10;99.90;;;;;;3596245;39;20051;-86
2021/06/18 09:09:51;;;;;;;13.32;12.02;;;22.00;99.90;;;;;;3605949;39;20059;-86
2021/06/18 09:12:18;;;;;;;11.07;10.07;;;22.00;99.90;;;;;;3595390;39;20058;-87
2021/06/18 09:14:44;;;;;;;9.95;9.07;;;22.20;99.90;;;;;;3605166;39;20405;-87
2021/06/18 09:17:27;;;;;;;11.70;10.60;;;22.20;99.90;;;;;;3596543;39;20421;-87
2021/06/18 09:19:56;;;;;;;14.23;12.85;;;22.10;99.90;;;;;;3605600;39;20054;-86
2021/06/18 09:22:33;;;;;;;11.43;10.25;;;21.60;99.90;;;;;;3605307;39;20063;-86
2021/06/18 09:25:17;;;;;;;10.52;9.52;;;21.90;99.90;;;;;;3605275;39;20059;-86
2021/06/18 09:27:46;;;;;;;11.80;10.82;;;22.00;99.90;;;;;;3605828;39;20463;-87
2021/06/18 09:30:26;;;;;;;12.80;11.60;;;21.80;99.90;;;;;;3604187;39;20061;-87
2021/06/18 09:32:56;;;;;;;12.35;11.25;;;21.70;99.90;;;;;;3595970;40;20052;-87
2021/06/18 09:35:22;;;;;;;12.60;11.50;;;21.80;99.90;;;;;;3595482;40;20058;-87
2021/06/18 09:37:57;;;;;;;11.18;10.18;;;21.50;99.90;;;;;;3585974;40;20318;-86
2021/06/18 09:40:24;;;;;;;13.40;12.20;;;21.50;99.90;;;;;;3594353;39;20087;-86
2021/06/18 09:43:01;;;;;;;13.85;12.65;;;21.30;99.90;;;;;;3595148;40;20415;-86
2021/06/18 09:45:29;;;;;;;16.67;12.85;;;21.20;99.90;;;;;;3586037;40;20417;-87
2021/06/18 09:48:17;;;;;;;13.98;12.65;;;21.00;99.90;;;;;;3595846;39;20060;-89
2021/06/18 09:50:45;;;;;;;14.13;12.80;;;21.00;99.90;;;;;;3596031;40;20437;-87
2021/06/18 09:53:22;;;;;;;11.52;10.52;;;21.20;99.90;;;;;;3595954;40;20058;-86
2021/06/18 09:56:00;;;;;;;10.82;9.80;;;21.10;99.90;;;;;;3585199;40;20076;-87
2021/06/18 09:58:37;;;;;;;12.07;11.07;;;21.30;99.90;;;;;;3595358;40;20052;-85
2021/06/18 10:01:22;;;;;;;11.10;10.10;;;21.20;99.90;;;;;;3595317;40;20056;-86
2021/06/18 10:04:06;;;;;;;13.55;11.65;;;21.20;99.90;;;;;;3595998;40;20348;-86
2021/06/18 10:06:34;;;;;;;13.02;11.80;;;21.30;99.90;;;;;;3596372;40;20080;-86
2021/06/18 10:09:01;;;;;;;14.32;13.10;;;21.40;99.90;;;;;;3587997;40;20161;-88
2021/06/18 10:11:30;;;;;;;14.70;13.30;;;21.20;99.90;;;;;;3596481;40;20390;-86
2021/06/18 10:13:57;;;;;;;14.57;13.38;;;21.30;99.90;;;;;;3587749;40;20059;-88
2021/06/18 10:16:23;;;;;;;13.63;12.32;;;21.10;99.90;;;;;;3597254;40;20048;-86
2021/06/18 10:18:50;;;;;;;15.25;13.90;;;21.30;99.90;;;;;;3597330;40;20337;-88
2021/06/18 10:21:17;;;;;;;16.42;15.02;;;21.20;99.90;;;;;;3587734;39;20129;-89
2021/06/18 10:23:47;;;;;;;17.63;16.02;;;21.00;99.90;;;;;;3607234;39;20066;-89
2021/06/18 10:26:14;;;;;;;14.82;13.55;;;20.90;99.90;;;;;;3606476;39;20043;-85
2021/06/18 10:28:50;;;;;;;14.90;13.60;;;20.90;99.90;;;;;;3606547;39;20047;-87
2021/06/18 10:31:36;;;;;;;11.52;10.63;;;21.00;99.90;;;;;;3606944;39;20047;-87
2021/06/18 10:34:03;;;;;;;10.68;9.60;;;20.70;99.90;;;;;;3607535;39;20058;-87
2021/06/18 10:36:30;;;;;;;12.30;11.13;;;21.00;99.90;;;;;;3606941;39;20051;-87
2021/06/18 10:39:05;;;;;;;13.20;11.35;;;20.90;99.90;;;;;;3603400;39;20306;-87
2021/06/18 10:41:31;;;;;;;12.07;10.98;;;20.70;99.90;;;;;;3605760;39;20203;-87
2021/06/18 10:43:58;;;;;;;11.73;10.73;;;20.60;99.90;;;;;;3606674;39;20058;-87
2021/06/18 10:46:28;;;;;;;12.23;11.02;;;20.90;99.90;;;;;;3606059;39;20059;-86
2021/06/18 10:48:58;;;;;;;11.65;10.57;;;21.20;99.90;;;;;;3606285;39;20439;-86
2021/06/18 10:51:27;;;;;;;10.70;9.70;;;21.20;99.90;;;;;;3605678;39;20414;-86
2021/06/18 10:54:05;;;;;;;10.70;9.80;;;21.50;99.90;;;;;;3597832;39;20325;-87
2021/06/18 10:56:49;;;;;;;10.23;9.23;;;21.80;99.90;;;;;;3597703;39;20307;-89
2021/06/18 10:59:27;;;;;;;10.80;9.82;;;21.90;99.90;;;;;;3598378;39;20055;-88
2021/06/18 11:01:53;;;;;;;11.02;10.05;;;22.20;99.90;;;;;;3598436;39;20051;-86
2021/06/18 11:04:43;;;;;;;10.57;9.48;;;22.10;99.90;;;;;;3590173;39;20047;-87
2021/06/18 11:07:31;;;;;;;12.55;9.43;;;22.20;99.90;;;;;;3605222;39;20067;-87
2021/06/18 11:10:01;;;;;;;10.43;9.45;;;22.30;99.90;;;;;;3598423;39;20047;-87
2021/06/18 11:12:29;;;;;;;9.48;8.63;;;21.80;99.90;;;;;;3594063;39;20070;-83
2021/06/18 11:14:58;;;;;;;10.00;8.82;;;22.00;99.90;;;;;;3600417;39;20062;-87
2021/06/18 11:17:45;;;;;;;9.15;8.32;;;22.00;99.90;;;;;;3598703;39;20094;-87
2021/06/18 11:20:20;;;;;;;8.88;7.22;;;21.90;99.90;;;;;;3604697;39;20133;-86
2021/06/18 11:25:36;;;;;;;10.52;8.30;;;22.40;99.90;;;;;;3595981;39;20378;-86
2021/06/18 11:28:20;;;;;;;7.10;6.38;;;22.10;99.90;;;;;;3596691;40;20060;-87
2021/06/18 11:30:53;;;;;;;8.02;6.55;;;22.90;99.90;;;;;;3597893;39;20217;-85
2021/06/18 11:36:23;;;;;;;8.68;7.80;;;23.30;99.90;;;;;;3602200;39;20055;-88
2021/06/18 11:38:56;;;;;;;8.77;8.07;;;22.90;99.90;;;;;;3606668;39;20413;-85
2021/06/18 11:41:27;;;;;;;9.98;8.98;;;22.20;99.90;;;;;;3601252;39;20132;-88
2021/06/18 11:43:57;;;;;;;11.65;8.98;;;22.00;99.90;;;;;;3602343;39;20055;-86
2021/06/18 11:46:25;;;;;;;10.15;9.25;;;22.40;99.90;;;;;;3603950;39;20059;-84
2021/06/18 11:48:54;;;;;;;9.77;8.85;;;21.90;99.90;;;;;;3590531;40;20092;-86
2021/06/18 11:51:20;;;;;;;8.82;7.85;;;21.60;99.90;;;;;;3589003;40;20044;-87
2021/06/18 11:53:47;;;;;;;8.55;7.78;;;21.60;99.90;;;;;;3596192;40;20101;-88
2021/06/18 11:56:13;;;;;;;8.68;7.90;;;21.90;99.90;;;;;;3600108;39;20051;-88
2021/06/18 11:58:40;;;;;;;10.07;9.13;;;22.20;99.90;;;;;;3596381;39;20079;-87
2021/06/18 12:01:21;;;;;;;10.18;9.18;;;22.10;99.90;;;;;;3603839;39;20060;-87
2021/06/18 12:03:48;;;;;;;10.60;9.68;;;22.20;99.90;;;;;;3600324;39;20304;-87
2021/06/18 12:06:21;;;;;;;14.23;10.00;;;21.80;99.90;;;;;;3601013;39;20321;-88
2021/06/18 12:09:07;;;;;;;10.77;9.77;;;22.00;99.90;;;;;;3593941;39;20062;-87
2021/06/18 12:11:38;;;;;;;12.95;11.65;;;22.00;99.90;;;;;;3595671;39;20047;-85
2021/06/18 12:14:05;;;;;;;14.23;12.40;;;22.20;99.90;;;;;;3595865;40;20068;-84
2021/06/18 12:16:40;;;;;;;11.75;10.55;;;22.60;99.90;;;;;;3595820;40;20044;-85
2021/06/18 12:19:28;;;;;;;12.60;11.30;;;22.60;99.90;;;;;;3586570;40;20056;-85
2021/06/18 12:22:07;;;;;;;12.45;11.23;;;22.50;99.90;;;;;;3593045;40;20048;-85
2021/06/18 12:24:38;;;;;;;13.07;11.77;;;23.30;99.90;;;;;;3599693;39;20063;-83
2021/06/18 12:27:13;;;;;;;16.25;12.82;;;23.40;99.90;;;;;;3605795;39;20084;-85
2021/06/18 12:29:45;;;;;;;14.07;12.57;;;23.20;99.90;;;;;;3599572;39;20344;-87
2021/06/18 12:32:13;;;;;;;20.88;14.13;;;23.00;99.90;;;;;;3596323;39;20120;-86
2021/06/18 12:34:47;;;;;;;12.38;11.27;;;23.20;99.90;;;;;;3595753;40;20408;-84
2021/06/18 12:37:14;;;;;;;14.13;12.82;;;23.10;99.90;;;;;;3595353;39;20057;-86
2021/06/18 12:40:03;;;;;;;13.35;12.13;;;22.70;99.90;;;;;;3586898;40;20088;-83
2021/06/18 12:42:29;;;;;;;15.63;12.25;;;22.30;99.90;;;;;;3599592;39;20079;-84